sensor_id;sensor_type;location;lat;lon;timestamp;P1;durP1;ratioP1;P2;durP2;ratioP2
12076;SDS011;12420;42.676;23.262;2023-12-20T00:00:28;71.17;;;44.33;;
12076;SDS011;12420;42.676;23.262;2023-12-20T00:02:55;71.13;;;45.63;;
12076;SDS011;12420;42.676;23.262;2023-12-20T00:05:22;64.83;;;40.00;;
12076;SDS011;12420;42.676;23.262;2023-12-20T00:07:50;60.13;;;39.33;;
12076;SDS011;12420;42.676;23.262;2023-12-20T00:10:19;61.00;;;37.80;;
12076;SDS011;12420;42.676;23.262;2023-12-20T00:12:46;64.80;;;38.37;;
12076;SDS011;12420;42.676;23.262;2023-12-20T00:15:13;60.93;;;36.70;;
12076;SDS011;12420;42.676;23.262;2023-12-20T00:17:40;56.80;;;35.27;;
12076;SDS011;12420;42.676;23.262;2023-12-20T00:20:07;51.17;;;33.80;;
12076;SDS011;12420;42.676;23.262;2023-12-20T00:22:34;50.07;;;30.97;;
12076;SDS011;12420;42.676;23.262;2023-12-20T00:25:03;49.73;;;30.33;;
12076;SDS011;12420;42.676;23.262;2023-12-20T00:27:30;42.73;;;26.13;;
12076;SDS011;12420;42.676;23.262;2023-12-20T00:29:57;38.47;;;25.40;;
12076;SDS011;12420;42.676;23.262;2023-12-20T00:32:23;39.10;;;23.07;;
12076;SDS011;12420;42.676;23.262;2023-12-20T00:34:50;33.90;;;21.43;;
12076;SDS011;12420;42.676;23.262;2023-12-20T00:37:17;36.77;;;21.87;;
12076;SDS011;12420;42.676;23.262;2023-12-20T00:39:44;37.10;;;23.20;;
12076;SDS011;12420;42.676;23.262;2023-12-20T00:42:12;34.53;;;21.77;;
12076;SDS011;12420;42.676;23.262;2023-12-20T00:44:38;37.67;;;23.30;;
12076;SDS011;12420;42.676;23.262;2023-12-20T00:47:05;37.10;;;22.10;;
12076;SDS011;12420;42.676;23.262;2023-12-20T00:49:32;35.03;;;22.27;;
12076;SDS011;12420;42.676;23.262;2023-12-20T00:51:58;33.23;;;20.97;;
12076;SDS011;12420;42.676;23.262;2023-12-20T00:54:25;32.47;;;21.40;;
12076;SDS011;12420;42.676;23.262;2023-12-20T00:56:52;29.97;;;20.00;;
12076;SDS011;12420;42.676;23.262;2023-12-20T00:59:20;31.53;;;20.33;;
12076;SDS011;12420;42.676;23.262;2023-12-20T01:01:47;30.87;;;18.80;;
12076;SDS011;12420;42.676;23.262;2023-12-20T01:04:13;32.30;;;20.00;;
12076;SDS011;12420;42.676;23.262;2023-12-20T01:06:40;33.00;;;20.53;;
12076;SDS011;12420;42.676;23.262;2023-12-20T01:09:07;31.20;;;18.97;;
12076;SDS011;12420;42.676;23.262;2023-12-20T01:11:33;31.20;;;19.40;;
12076;SDS011;12420;42.676;23.262;2023-12-20T01:14:00;35.47;;;21.67;;
12076;SDS011;12420;42.676;23.262;2023-12-20T01:16:28;32.07;;;20.30;;
12076;SDS011;12420;42.676;23.262;2023-12-20T01:18:55;28.50;;;18.93;;
12076;SDS011;12420;42.676;23.262;2023-12-20T01:21:22;29.33;;;19.03;;
12076;SDS011;12420;42.676;23.262;2023-12-20T01:23:48;101.40;;;40.90;;
12076;SDS011;12420;42.676;23.262;2023-12-20T01:26:15;104.47;;;39.27;;
12076;SDS011;12420;42.676;23.262;2023-12-20T01:28:42;100.40;;;39.27;;
12076;SDS011;12420;42.676;23.262;2023-12-20T01:31:09;38.47;;;22.73;;
12076;SDS011;12420;42.676;23.262;2023-12-20T01:33:37;36.87;;;20.13;;
12076;SDS011;12420;42.676;23.262;2023-12-20T01:36:04;34.00;;;19.77;;
12076;SDS011;12420;42.676;23.262;2023-12-20T01:38:31;34.03;;;20.53;;
12076;SDS011;12420;42.676;23.262;2023-12-20T01:40:57;29.43;;;19.10;;
12076;SDS011;12420;42.676;23.262;2023-12-20T01:43:24;31.30;;;19.47;;
12076;SDS011;12420;42.676;23.262;2023-12-20T01:45:51;34.27;;;21.00;;
12076;SDS011;12420;42.676;23.262;2023-12-20T01:48:18;30.13;;;19.83;;
12076;SDS011;12420;42.676;23.262;2023-12-20T01:50:48;35.17;;;21.17;;
12076;SDS011;12420;42.676;23.262;2023-12-20T01:53:15;31.30;;;19.57;;
12076;SDS011;12420;42.676;23.262;2023-12-20T01:55:42;30.37;;;19.07;;
12076;SDS011;12420;42.676;23.262;2023-12-20T01:58:10;28.93;;;18.60;;
12076;SDS011;12420;42.676;23.262;2023-12-20T02:00:38;29.93;;;19.17;;
12076;SDS011;12420;42.676;23.262;2023-12-20T02:03:05;31.60;;;19.33;;
12076;SDS011;12420;42.676;23.262;2023-12-20T02:05:33;33.43;;;19.90;;
12076;SDS011;12420;42.676;23.262;2023-12-20T02:08:03;29.10;;;18.23;;
12076;SDS011;12420;42.676;23.262;2023-12-20T02:10:30;37.13;;;20.27;;
12076;SDS011;12420;42.676;23.262;2023-12-20T02:12:57;33.00;;;19.77;;
12076;SDS011;12420;42.676;23.262;2023-12-20T02:15:24;33.73;;;21.20;;
12076;SDS011;12420;42.676;23.262;2023-12-20T02:17:51;36.93;;;22.50;;
12076;SDS011;12420;42.676;23.262;2023-12-20T02:20:18;43.83;;;26.27;;
12076;SDS011;12420;42.676;23.262;2023-12-20T02:22:46;47.53;;;28.50;;
12076;SDS011;12420;42.676;23.262;2023-12-20T02:25:13;51.73;;;30.10;;
12076;SDS011;12420;42.676;23.262;2023-12-20T02:27:40;51.07;;;30.10;;
12076;SDS011;12420;42.676;23.262;2023-12-20T02:30:07;43.30;;;27.50;;
12076;SDS011;12420;42.676;23.262;2023-12-20T02:32:34;56.17;;;31.43;;
12076;SDS011;12420;42.676;23.262;2023-12-20T02:35:01;41.30;;;25.60;;
12076;SDS011;12420;42.676;23.262;2023-12-20T02:37:28;49.43;;;28.60;;
12076;SDS011;12420;42.676;23.262;2023-12-20T02:39:56;48.37;;;27.93;;
12076;SDS011;12420;42.676;23.262;2023-12-20T02:42:22;45.63;;;29.37;;
12076;SDS011;12420;42.676;23.262;2023-12-20T02:44:49;48.60;;;28.87;;
12076;SDS011;12420;42.676;23.262;2023-12-20T02:47:16;48.47;;;29.90;;
12076;SDS011;12420;42.676;23.262;2023-12-20T02:49:43;46.50;;;28.07;;
12076;SDS011;12420;42.676;23.262;2023-12-20T02:52:11;49.63;;;29.87;;
12076;SDS011;12420;42.676;23.262;2023-12-20T02:54:38;46.50;;;27.47;;
12076;SDS011;12420;42.676;23.262;2023-12-20T02:57:06;46.30;;;28.93;;
12076;SDS011;12420;42.676;23.262;2023-12-20T02:59:33;51.83;;;31.43;;
12076;SDS011;12420;42.676;23.262;2023-12-20T03:02:00;49.93;;;30.07;;
12076;SDS011;12420;42.676;23.262;2023-12-20T03:04:27;53.20;;;31.20;;
12076;SDS011;12420;42.676;23.262;2023-12-20T03:06:53;48.87;;;28.97;;
12076;SDS011;12420;42.676;23.262;2023-12-20T03:09:20;48.20;;;28.03;;
12076;SDS011;12420;42.676;23.262;2023-12-20T03:11:47;44.77;;;28.53;;
12076;SDS011;12420;42.676;23.262;2023-12-20T03:14:15;42.80;;;26.93;;
12076;SDS011;12420;42.676;23.262;2023-12-20T03:16:42;45.47;;;28.20;;
12076;SDS011;12420;42.676;23.262;2023-12-20T03:19:13;41.70;;;26.07;;
12076;SDS011;12420;42.676;23.262;2023-12-20T03:21:41;42.63;;;27.97;;
12076;SDS011;12420;42.676;23.262;2023-12-20T03:24:08;47.57;;;29.50;;
12076;SDS011;12420;42.676;23.262;2023-12-20T03:26:34;46.77;;;29.33;;
12076;SDS011;12420;42.676;23.262;2023-12-20T03:29:01;48.73;;;29.13;;
12076;SDS011;12420;42.676;23.262;2023-12-20T03:31:31;49.57;;;30.17;;
12076;SDS011;12420;42.676;23.262;2023-12-20T03:33:57;52.00;;;32.03;;
12076;SDS011;12420;42.676;23.262;2023-12-20T03:36:24;53.97;;;33.03;;
12076;SDS011;12420;42.676;23.262;2023-12-20T03:38:51;69.10;;;41.23;;
12076;SDS011;12420;42.676;23.262;2023-12-20T03:41:18;68.40;;;41.37;;
12076;SDS011;12420;42.676;23.262;2023-12-20T03:43:44;83.60;;;47.93;;
12076;SDS011;12420;42.676;23.262;2023-12-20T03:46:11;60.03;;;35.97;;
12076;SDS011;12420;42.676;23.262;2023-12-20T03:48:39;66.43;;;39.57;;
12076;SDS011;12420;42.676;23.262;2023-12-20T03:51:06;57.83;;;37.00;;
12076;SDS011;12420;42.676;23.262;2023-12-20T03:53:33;62.17;;;38.17;;
12076;SDS011;12420;42.676;23.262;2023-12-20T03:55:59;64.13;;;38.33;;
12076;SDS011;12420;42.676;23.262;2023-12-20T03:58:26;62.70;;;38.47;;
12076;SDS011;12420;42.676;23.262;2023-12-20T04:00:53;70.63;;;40.33;;
12076;SDS011;12420;42.676;23.262;2023-12-20T04:03:20;63.33;;;39.77;;
12076;SDS011;12420;42.676;23.262;2023-12-20T04:05:48;67.47;;;42.80;;
12076;SDS011;12420;42.676;23.262;2023-12-20T04:08:15;66.40;;;41.87;;
12076;SDS011;12420;42.676;23.262;2023-12-20T04:10:41;66.77;;;39.30;;
12076;SDS011;12420;42.676;23.262;2023-12-20T04:13:08;61.27;;;37.23;;
12076;SDS011;12420;42.676;23.262;2023-12-20T04:15:35;58.87;;;38.90;;
12076;SDS011;12420;42.676;23.262;2023-12-20T04:18:02;61.43;;;38.10;;
12076;SDS011;12420;42.676;23.262;2023-12-20T04:20:29;61.90;;;38.40;;
12076;SDS011;12420;42.676;23.262;2023-12-20T04:22:57;59.63;;;36.83;;
12076;SDS011;12420;42.676;23.262;2023-12-20T04:25:24;56.37;;;34.90;;
12076;SDS011;12420;42.676;23.262;2023-12-20T04:27:51;56.50;;;34.70;;
12076;SDS011;12420;42.676;23.262;2023-12-20T04:30:17;56.30;;;34.03;;
12076;SDS011;12420;42.676;23.262;2023-12-20T04:32:44;53.23;;;32.87;;
12076;SDS011;12420;42.676;23.262;2023-12-20T04:35:11;52.90;;;32.20;;
12076;SDS011;12420;42.676;23.262;2023-12-20T04:37:38;57.07;;;34.50;;
12076;SDS011;12420;42.676;23.262;2023-12-20T04:40:08;51.97;;;31.80;;
12076;SDS011;12420;42.676;23.262;2023-12-20T04:42:36;55.07;;;34.60;;
12076;SDS011;12420;42.676;23.262;2023-12-20T04:45:02;51.40;;;33.80;;
12076;SDS011;12420;42.676;23.262;2023-12-20T04:47:30;55.33;;;33.70;;
12076;SDS011;12420;42.676;23.262;2023-12-20T04:49:57;58.20;;;36.87;;
12076;SDS011;12420;42.676;23.262;2023-12-20T04:52:24;49.90;;;32.07;;
12076;SDS011;12420;42.676;23.262;2023-12-20T04:54:51;61.43;;;35.77;;
12076;SDS011;12420;42.676;23.262;2023-12-20T04:57:19;66.67;;;38.47;;
12076;SDS011;12420;42.676;23.262;2023-12-20T04:59:47;69.80;;;41.50;;
12076;SDS011;12420;42.676;23.262;2023-12-20T05:02:14;167.20;;;76.37;;
12076;SDS011;12420;42.676;23.262;2023-12-20T05:04:40;97.90;;;52.70;;
12076;SDS011;12420;42.676;23.262;2023-12-20T05:07:07;89.83;;;49.23;;
12076;SDS011;12420;42.676;23.262;2023-12-20T05:09:34;94.57;;;50.50;;
12076;SDS011;12420;42.676;23.262;2023-12-20T05:12:02;85.60;;;46.93;;
12076;SDS011;12420;42.676;23.262;2023-12-20T05:14:30;80.03;;;46.13;;
12076;SDS011;12420;42.676;23.262;2023-12-20T05:16:57;85.90;;;47.53;;
12076;SDS011;12420;42.676;23.262;2023-12-20T05:19:24;90.10;;;48.60;;
12076;SDS011;12420;42.676;23.262;2023-12-20T05:21:51;86.63;;;47.40;;
12076;SDS011;12420;42.676;23.262;2023-12-20T05:24:18;91.33;;;49.57;;
12076;SDS011;12420;42.676;23.262;2023-12-20T05:26:45;91.43;;;47.70;;
12076;SDS011;12420;42.676;23.262;2023-12-20T05:29:11;84.97;;;48.93;;
12076;SDS011;12420;42.676;23.262;2023-12-20T05:31:40;84.10;;;49.83;;
12076;SDS011;12420;42.676;23.262;2023-12-20T05:34:06;88.50;;;50.27;;
12076;SDS011;12420;42.676;23.262;2023-12-20T05:36:33;106.17;;;57.23;;
12076;SDS011;12420;42.676;23.262;2023-12-20T05:39:02;105.30;;;57.90;;
12076;SDS011;12420;42.676;23.262;2023-12-20T05:41:29;101.00;;;57.87;;
12076;SDS011;12420;42.676;23.262;2023-12-20T05:43:57;105.57;;;57.03;;
12076;SDS011;12420;42.676;23.262;2023-12-20T05:46:24;109.60;;;56.83;;
12076;SDS011;12420;42.676;23.262;2023-12-20T05:48:54;105.60;;;53.30;;
12076;SDS011;12420;42.676;23.262;2023-12-20T05:51:20;97.87;;;50.70;;
12076;SDS011;12420;42.676;23.262;2023-12-20T05:53:47;103.60;;;50.70;;
12076;SDS011;12420;42.676;23.262;2023-12-20T05:56:15;100.97;;;50.60;;
12076;SDS011;12420;42.676;23.262;2023-12-20T05:58:42;109.47;;;50.60;;
12076;SDS011;12420;42.676;23.262;2023-12-20T06:01:08;113.23;;;51.50;;
12076;SDS011;12420;42.676;23.262;2023-12-20T06:03:35;127.10;;;48.70;;
12076;SDS011;12420;42.676;23.262;2023-12-20T06:06:06;120.77;;;48.90;;
12076;SDS011;12420;42.676;23.262;2023-12-20T06:08:33;140.17;;;48.63;;
12076;SDS011;12420;42.676;23.262;2023-12-20T06:11:00;118.40;;;47.07;;
12076;SDS011;12420;42.676;23.262;2023-12-20T06:13:27;179.30;;;47.57;;
12076;SDS011;12420;42.676;23.262;2023-12-20T06:15:54;194.17;;;50.90;;
12076;SDS011;12420;42.676;23.262;2023-12-20T06:18:21;111.63;;;46.00;;
12076;SDS011;12420;42.676;23.262;2023-12-20T06:20:48;274.67;;;54.77;;
12076;SDS011;12420;42.676;23.262;2023-12-20T06:23:17;243.27;;;53.43;;
12076;SDS011;12420;42.676;23.262;2023-12-20T06:25:43;241.90;;;49.57;;
12076;SDS011;12420;42.676;23.262;2023-12-20T06:28:10;242.73;;;52.03;;
12076;SDS011;12420;42.676;23.262;2023-12-20T06:30:39;188.47;;;48.03;;
12076;SDS011;12420;42.676;23.262;2023-12-20T06:33:06;184.90;;;47.37;;
12076;SDS011;12420;42.676;23.262;2023-12-20T06:35:36;121.63;;;44.77;;
12076;SDS011;12420;42.676;23.262;2023-12-20T06:38:03;171.00;;;50.13;;
12076;SDS011;12420;42.676;23.262;2023-12-20T06:40:31;106.63;;;44.33;;
12076;SDS011;12420;42.676;23.262;2023-12-20T06:42:58;204.10;;;55.37;;
12076;SDS011;12420;42.676;23.262;2023-12-20T06:45:25;172.97;;;57.23;;
12076;SDS011;12420;42.676;23.262;2023-12-20T06:47:52;176.37;;;56.43;;
12076;SDS011;12420;42.676;23.262;2023-12-20T06:50:20;152.77;;;54.97;;
12076;SDS011;12420;42.676;23.262;2023-12-20T06:52:46;169.47;;;54.10;;
12076;SDS011;12420;42.676;23.262;2023-12-20T06:55:13;218.63;;;64.57;;
12076;SDS011;12420;42.676;23.262;2023-12-20T06:57:41;182.87;;;61.47;;
12076;SDS011;12420;42.676;23.262;2023-12-20T07:00:10;251.13;;;63.63;;
12076;SDS011;12420;42.676;23.262;2023-12-20T07:02:38;157.13;;;58.90;;
12076;SDS011;12420;42.676;23.262;2023-12-20T07:05:05;330.20;;;66.23;;
12076;SDS011;12420;42.676;23.262;2023-12-20T07:07:32;158.53;;;57.30;;
12076;SDS011;12420;42.676;23.262;2023-12-20T07:09:59;203.87;;;64.20;;
12076;SDS011;12420;42.676;23.262;2023-12-20T07:12:25;166.33;;;58.57;;
12076;SDS011;12420;42.676;23.262;2023-12-20T07:14:54;215.90;;;60.80;;
12076;SDS011;12420;42.676;23.262;2023-12-20T07:17:21;155.93;;;54.60;;
12076;SDS011;12420;42.676;23.262;2023-12-20T07:19:48;205.13;;;58.13;;
12076;SDS011;12420;42.676;23.262;2023-12-20T07:22:15;211.70;;;59.17;;
12076;SDS011;12420;42.676;23.262;2023-12-20T07:24:42;175.17;;;52.73;;
12076;SDS011;12420;42.676;23.262;2023-12-20T07:27:08;143.97;;;56.67;;
12076;SDS011;12420;42.676;23.262;2023-12-20T07:29:35;150.90;;;56.37;;
12076;SDS011;12420;42.676;23.262;2023-12-20T07:32:04;164.83;;;58.33;;
12076;SDS011;12420;42.676;23.262;2023-12-20T07:34:32;135.73;;;56.67;;
12076;SDS011;12420;42.676;23.262;2023-12-20T07:36:59;148.30;;;60.70;;
12076;SDS011;12420;42.676;23.262;2023-12-20T07:39:29;152.70;;;63.07;;
12076;SDS011;12420;42.676;23.262;2023-12-20T07:41:56;205.83;;;68.70;;
12076;SDS011;12420;42.676;23.262;2023-12-20T07:44:23;139.87;;;59.73;;
12076;SDS011;12420;42.676;23.262;2023-12-20T07:46:50;155.13;;;64.03;;
12076;SDS011;12420;42.676;23.262;2023-12-20T07:49:20;161.50;;;65.50;;
12076;SDS011;12420;42.676;23.262;2023-12-20T07:51:50;160.30;;;63.80;;
12076;SDS011;12420;42.676;23.262;2023-12-20T07:54:21;142.20;;;63.70;;
12076;SDS011;12420;42.676;23.262;2023-12-20T07:56:48;140.47;;;62.53;;
12076;SDS011;12420;42.676;23.262;2023-12-20T07:59:15;136.17;;;60.00;;
12076;SDS011;12420;42.676;23.262;2023-12-20T08:01:42;143.37;;;63.93;;
12076;SDS011;12420;42.676;23.262;2023-12-20T08:04:09;124.57;;;59.37;;
12076;SDS011;12420;42.676;23.262;2023-12-20T08:06:38;125.30;;;57.47;;
12076;SDS011;12420;42.676;23.262;2023-12-20T08:09:04;135.30;;;60.23;;
12076;SDS011;12420;42.676;23.262;2023-12-20T08:11:31;138.57;;;62.40;;
12076;SDS011;12420;42.676;23.262;2023-12-20T08:13:59;134.60;;;62.83;;
12076;SDS011;12420;42.676;23.262;2023-12-20T08:16:25;120.03;;;56.33;;
12076;SDS011;12420;42.676;23.262;2023-12-20T08:18:52;131.20;;;58.97;;
12076;SDS011;12420;42.676;23.262;2023-12-20T08:21:19;114.63;;;56.50;;
12076;SDS011;12420;42.676;23.262;2023-12-20T08:23:49;110.47;;;53.97;;
12076;SDS011;12420;42.676;23.262;2023-12-20T08:26:18;112.37;;;55.57;;
12076;SDS011;12420;42.676;23.262;2023-12-20T08:28:47;102.80;;;51.77;;
12076;SDS011;12420;42.676;23.262;2023-12-20T08:31:14;103.07;;;51.87;;
12076;SDS011;12420;42.676;23.262;2023-12-20T08:33:41;113.43;;;59.20;;
12076;SDS011;12420;42.676;23.262;2023-12-20T08:36:09;116.87;;;59.03;;
12076;SDS011;12420;42.676;23.262;2023-12-20T08:38:36;129.77;;;63.60;;
12076;SDS011;12420;42.676;23.262;2023-12-20T08:41:04;157.90;;;77.40;;
12076;SDS011;12420;42.676;23.262;2023-12-20T08:43:31;161.13;;;78.40;;
12076;SDS011;12420;42.676;23.262;2023-12-20T08:45:58;159.03;;;75.70;;
12076;SDS011;12420;42.676;23.262;2023-12-20T08:48:25;171.20;;;76.20;;
12076;SDS011;12420;42.676;23.262;2023-12-20T08:50:52;164.87;;;74.87;;
12076;SDS011;12420;42.676;23.262;2023-12-20T08:53:19;159.83;;;74.77;;
12076;SDS011;12420;42.676;23.262;2023-12-20T08:55:46;150.10;;;74.17;;
12076;SDS011;12420;42.676;23.262;2023-12-20T08:58:15;145.67;;;72.23;;
12076;SDS011;12420;42.676;23.262;2023-12-20T09:00:42;137.43;;;68.07;;
12076;SDS011;12420;42.676;23.262;2023-12-20T09:03:09;131.63;;;66.37;;
12076;SDS011;12420;42.676;23.262;2023-12-20T09:05:35;130.40;;;64.80;;
12076;SDS011;12420;42.676;23.262;2023-12-20T09:08:02;133.07;;;65.67;;
12076;SDS011;12420;42.676;23.262;2023-12-20T09:10:29;126.10;;;65.27;;
12076;SDS011;12420;42.676;23.262;2023-12-20T09:12:56;142.23;;;66.80;;
12076;SDS011;12420;42.676;23.262;2023-12-20T09:15:25;139.43;;;67.50;;
12076;SDS011;12420;42.676;23.262;2023-12-20T09:17:52;129.73;;;66.33;;
12076;SDS011;12420;42.676;23.262;2023-12-20T09:20:20;134.53;;;67.73;;
12076;SDS011;12420;42.676;23.262;2023-12-20T09:22:48;140.10;;;68.90;;
12076;SDS011;12420;42.676;23.262;2023-12-20T09:25:15;150.80;;;72.07;;
12076;SDS011;12420;42.676;23.262;2023-12-20T09:27:42;144.10;;;71.27;;
12076;SDS011;12420;42.676;23.262;2023-12-20T09:30:10;149.63;;;71.27;;
12076;SDS011;12420;42.676;23.262;2023-12-20T09:32:38;155.13;;;70.00;;
12076;SDS011;12420;42.676;23.262;2023-12-20T09:35:05;147.97;;;72.00;;
12076;SDS011;12420;42.676;23.262;2023-12-20T09:37:34;155.33;;;70.77;;
12076;SDS011;12420;42.676;23.262;2023-12-20T09:40:00;152.23;;;72.50;;
12076;SDS011;12420;42.676;23.262;2023-12-20T09:42:29;147.10;;;73.43;;
12076;SDS011;12420;42.676;23.262;2023-12-20T09:45:04;143.10;;;73.83;;
12076;SDS011;12420;42.676;23.262;2023-12-20T09:47:35;145.93;;;69.90;;
12076;SDS011;12420;42.676;23.262;2023-12-20T09:50:04;150.53;;;74.57;;
12076;SDS011;12420;42.676;23.262;2023-12-20T09:52:32;150.03;;;71.37;;
12076;SDS011;12420;42.676;23.262;2023-12-20T09:55:00;149.77;;;71.67;;
12076;SDS011;12420;42.676;23.262;2023-12-20T09:57:30;153.60;;;70.37;;
12076;SDS011;12420;42.676;23.262;2023-12-20T09:59:57;156.80;;;74.50;;
12076;SDS011;12420;42.676;23.262;2023-12-20T10:02:25;146.97;;;71.53;;
12076;SDS011;12420;42.676;23.262;2023-12-20T10:04:53;150.77;;;73.93;;
12076;SDS011;12420;42.676;23.262;2023-12-20T10:07:22;149.50;;;69.73;;
12076;SDS011;12420;42.676;23.262;2023-12-20T10:09:49;141.57;;;71.73;;
12076;SDS011;12420;42.676;23.262;2023-12-20T10:12:18;153.67;;;73.00;;
12076;SDS011;12420;42.676;23.262;2023-12-20T10:14:44;153.00;;;74.47;;
12076;SDS011;12420;42.676;23.262;2023-12-20T10:17:11;150.17;;;72.23;;
12076;SDS011;12420;42.676;23.262;2023-12-20T10:19:38;145.77;;;72.83;;
12076;SDS011;12420;42.676;23.262;2023-12-20T10:22:05;146.37;;;72.17;;
12076;SDS011;12420;42.676;23.262;2023-12-20T10:24:33;147.17;;;71.90;;
12076;SDS011;12420;42.676;23.262;2023-12-20T10:27:03;161.87;;;72.53;;
12076;SDS011;12420;42.676;23.262;2023-12-20T10:29:33;141.10;;;73.30;;
12076;SDS011;12420;42.676;23.262;2023-12-20T10:32:05;133.83;;;71.77;;
12076;SDS011;12420;42.676;23.262;2023-12-20T10:34:48;138.80;;;73.23;;
12076;SDS011;12420;42.676;23.262;2023-12-20T10:37:15;139.33;;;71.03;;
12076;SDS011;12420;42.676;23.262;2023-12-20T10:39:45;142.47;;;73.13;;
12076;SDS011;12420;42.676;23.262;2023-12-20T10:42:21;140.40;;;72.17;;
12076;SDS011;12420;42.676;23.262;2023-12-20T10:44:49;147.77;;;74.50;;
12076;SDS011;12420;42.676;23.262;2023-12-20T10:47:16;145.40;;;74.23;;
12076;SDS011;12420;42.676;23.262;2023-12-20T10:49:43;128.97;;;70.83;;
12076;SDS011;12420;42.676;23.262;2023-12-20T10:52:13;140.97;;;70.80;;
12076;SDS011;12420;42.676;23.262;2023-12-20T10:54:39;136.17;;;71.27;;
12076;SDS011;12420;42.676;23.262;2023-12-20T10:57:08;129.37;;;67.73;;
12076;SDS011;12420;42.676;23.262;2023-12-20T10:59:36;132.27;;;69.23;;
12076;SDS011;12420;42.676;23.262;2023-12-20T11:02:04;127.13;;;66.93;;
12076;SDS011;12420;42.676;23.262;2023-12-20T11:04:35;139.47;;;71.93;;
12076;SDS011;12420;42.676;23.262;2023-12-20T11:07:10;131.20;;;69.73;;
12076;SDS011;12420;42.676;23.262;2023-12-20T11:09:47;130.20;;;69.13;;
12076;SDS011;12420;42.676;23.262;2023-12-20T11:12:25;121.10;;;66.20;;
12076;SDS011;12420;42.676;23.262;2023-12-20T11:14:58;124.70;;;66.03;;
12076;SDS011;12420;42.676;23.262;2023-12-20T11:17:29;122.20;;;68.33;;
12076;SDS011;12420;42.676;23.262;2023-12-20T11:20:04;120.20;;;67.17;;
12076;SDS011;12420;42.676;23.262;2023-12-20T11:22:33;127.07;;;69.80;;
12076;SDS011;12420;42.676;23.262;2023-12-20T11:25:03;127.30;;;66.20;;
12076;SDS011;12420;42.676;23.262;2023-12-20T11:27:33;131.50;;;67.97;;
12076;SDS011;12420;42.676;23.262;2023-12-20T11:29:59;130.80;;;70.47;;
12076;SDS011;12420;42.676;23.262;2023-12-20T11:32:33;140.23;;;75.23;;
12076;SDS011;12420;42.676;23.262;2023-12-20T11:35:01;141.80;;;75.90;;
12076;SDS011;12420;42.676;23.262;2023-12-20T11:37:44;139.90;;;74.07;;
12076;SDS011;12420;42.676;23.262;2023-12-20T11:40:13;146.33;;;77.40;;
12076;SDS011;12420;42.676;23.262;2023-12-20T11:42:43;148.03;;;77.90;;
12076;SDS011;12420;42.676;23.262;2023-12-20T11:45:15;146.77;;;80.60;;
12076;SDS011;12420;42.676;23.262;2023-12-20T11:47:45;152.27;;;82.80;;
12076;SDS011;12420;42.676;23.262;2023-12-20T11:50:14;157.77;;;79.97;;
12076;SDS011;12420;42.676;23.262;2023-12-20T11:52:41;149.60;;;81.03;;
12076;SDS011;12420;42.676;23.262;2023-12-20T11:55:08;149.53;;;80.97;;
12076;SDS011;12420;42.676;23.262;2023-12-20T11:57:35;167.90;;;81.50;;
12076;SDS011;12420;42.676;23.262;2023-12-20T12:00:04;157.00;;;83.43;;
12076;SDS011;12420;42.676;23.262;2023-12-20T12:02:32;152.73;;;80.13;;
12076;SDS011;12420;42.676;23.262;2023-12-20T12:04:59;155.13;;;82.77;;
12076;SDS011;12420;42.676;23.262;2023-12-20T12:07:26;157.17;;;83.10;;
12076;SDS011;12420;42.676;23.262;2023-12-20T12:09:53;147.57;;;82.53;;
12076;SDS011;12420;42.676;23.262;2023-12-20T12:12:19;167.97;;;87.73;;
12076;SDS011;12420;42.676;23.262;2023-12-20T12:14:47;155.47;;;85.13;;
12076;SDS011;12420;42.676;23.262;2023-12-20T12:17:15;151.47;;;84.47;;
12076;SDS011;12420;42.676;23.262;2023-12-20T12:19:43;164.80;;;89.40;;
12076;SDS011;12420;42.676;23.262;2023-12-20T12:22:10;154.63;;;82.33;;
12076;SDS011;12420;42.676;23.262;2023-12-20T12:24:39;170.77;;;88.60;;
12076;SDS011;12420;42.676;23.262;2023-12-20T12:27:06;150.73;;;82.60;;
12076;SDS011;12420;42.676;23.262;2023-12-20T12:29:33;156.97;;;81.50;;
12076;SDS011;12420;42.676;23.262;2023-12-20T12:32:01;155.17;;;83.13;;
12076;SDS011;12420;42.676;23.262;2023-12-20T12:34:32;152.00;;;79.50;;
12076;SDS011;12420;42.676;23.262;2023-12-20T12:36:59;144.13;;;75.03;;
12076;SDS011;12420;42.676;23.262;2023-12-20T12:39:26;149.97;;;75.50;;
12076;SDS011;12420;42.676;23.262;2023-12-20T12:41:54;148.93;;;78.00;;
12076;SDS011;12420;42.676;23.262;2023-12-20T12:44:22;133.17;;;72.83;;
12076;SDS011;12420;42.676;23.262;2023-12-20T12:46:50;129.83;;;70.13;;
12076;SDS011;12420;42.676;23.262;2023-12-20T12:49:18;130.47;;;68.57;;
12076;SDS011;12420;42.676;23.262;2023-12-20T12:51:47;134.70;;;67.03;;
12076;SDS011;12420;42.676;23.262;2023-12-20T12:54:14;125.67;;;65.30;;
12076;SDS011;12420;42.676;23.262;2023-12-20T12:56:43;130.50;;;65.03;;
12076;SDS011;12420;42.676;23.262;2023-12-20T12:59:12;123.90;;;65.23;;
12076;SDS011;12420;42.676;23.262;2023-12-20T13:01:39;120.60;;;63.80;;
12076;SDS011;12420;42.676;23.262;2023-12-20T13:04:05;124.87;;;63.57;;
12076;SDS011;12420;42.676;23.262;2023-12-20T13:06:35;123.63;;;63.70;;
12076;SDS011;12420;42.676;23.262;2023-12-20T13:09:04;124.93;;;65.53;;
12076;SDS011;12420;42.676;23.262;2023-12-20T13:11:31;121.00;;;63.77;;
12076;SDS011;12420;42.676;23.262;2023-12-20T13:13:58;131.47;;;66.90;;
12076;SDS011;12420;42.676;23.262;2023-12-20T13:16:25;130.93;;;66.30;;
12076;SDS011;12420;42.676;23.262;2023-12-20T13:18:52;133.30;;;66.17;;
12076;SDS011;12420;42.676;23.262;2023-12-20T13:21:18;131.80;;;64.73;;
12076;SDS011;12420;42.676;23.262;2023-12-20T13:23:45;129.10;;;65.23;;
12076;SDS011;12420;42.676;23.262;2023-12-20T13:26:13;127.50;;;65.17;;
12076;SDS011;12420;42.676;23.262;2023-12-20T13:28:40;132.07;;;66.87;;
12076;SDS011;12420;42.676;23.262;2023-12-20T13:31:07;127.73;;;65.87;;
12076;SDS011;12420;42.676;23.262;2023-12-20T13:33:34;134.67;;;68.23;;
12076;SDS011;12420;42.676;23.262;2023-12-20T13:36:01;131.10;;;67.07;;
12076;SDS011;12420;42.676;23.262;2023-12-20T13:38:29;127.77;;;66.37;;
12076;SDS011;12420;42.676;23.262;2023-12-20T13:40:56;135.30;;;68.03;;
12076;SDS011;12420;42.676;23.262;2023-12-20T13:43:25;140.93;;;70.70;;
12076;SDS011;12420;42.676;23.262;2023-12-20T13:45:52;136.73;;;71.53;;
12076;SDS011;12420;42.676;23.262;2023-12-20T13:48:19;140.13;;;73.67;;
12076;SDS011;12420;42.676;23.262;2023-12-20T13:50:46;140.77;;;71.30;;
12076;SDS011;12420;42.676;23.262;2023-12-20T13:53:13;150.23;;;73.00;;
12076;SDS011;12420;42.676;23.262;2023-12-20T13:55:39;144.67;;;72.90;;
12076;SDS011;12420;42.676;23.262;2023-12-20T13:58:06;141.23;;;73.10;;
12076;SDS011;12420;42.676;23.262;2023-12-20T14:00:36;138.53;;;70.40;;
12076;SDS011;12420;42.676;23.262;2023-12-20T14:03:04;142.97;;;75.40;;